createdAt,value
2023-05-05T00:00:23.132Z,10.10
2023-05-05T00:02:50.457Z,8.43
2023-05-05T00:05:17.792Z,9.48
2023-05-05T00:07:45.075Z,8.93
2023-05-05T00:10:12.410Z,10.23
2023-05-05T00:12:39.732Z,8.60
2023-05-05T00:15:07.644Z,9.88
2023-05-05T00:17:34.969Z,11.82
2023-05-05T00:20:02.383Z,8.18
2023-05-05T00:22:29.728Z,10.68
2023-05-05T00:24:57.146Z,9.30
2023-05-05T00:27:24.742Z,8.25
2023-05-05T00:29:52.095Z,8.30
2023-05-05T00:32:19.384Z,11.98
2023-05-05T00:34:47.049Z,8.60
2023-05-05T00:37:14.387Z,9.02
2023-05-05T00:39:41.996Z,9.73
2023-05-05T00:42:09.638Z,9.30
2023-05-05T00:44:41.961Z,8.30
2023-05-05T00:47:10.170Z,8.70
2023-05-05T00:49:38.373Z,9.45
2023-05-05T00:52:07.839Z,10.07
2023-05-05T00:54:36.312Z,11.05
2023-05-05T00:57:04.359Z,9.27
2023-05-05T00:59:33.850Z,11.13
2023-05-05T01:02:01.847Z,8.52
2023-05-05T01:04:29.337Z,9.40
2023-05-05T01:07:09.232Z,9.20
2023-05-05T01:09:42.513Z,10.38
2023-05-05T01:12:15.746Z,9.27
2023-05-05T01:14:56.934Z,10.32
2023-05-05T01:17:34.778Z,9.45
2023-05-05T01:20:29.964Z,8.50
2023-05-05T01:23:06.068Z,8.52
2023-05-05T01:26:08.900Z,10.15
2023-05-05T01:29:06.583Z,8.73
2023-05-05T01:31:53.798Z,8.90
2023-05-05T01:34:29.309Z,8.85
2023-05-05T01:37:20.930Z,10.75
2023-05-05T01:39:54.631Z,8.68
2023-05-05T01:42:25.400Z,8.80
2023-05-05T01:44:56.878Z,9.52
2023-05-05T01:47:25.601Z,10.32
2023-05-05T01:49:53.602Z,10.35
2023-05-05T01:52:22.292Z,9.40
2023-05-05T01:54:52.790Z,10.13
2023-05-05T01:57:23.020Z,11.03
2023-05-05T01:59:53.335Z,10.30
2023-05-05T02:02:22.457Z,9.52
2023-05-05T02:04:51.359Z,8.88
2023-05-05T02:07:20.138Z,11.45
2023-05-05T02:09:48.895Z,9.55
2023-05-05T02:12:18.391Z,8.23
2023-05-05T02:14:47.642Z,9.88
2023-05-05T02:17:16.368Z,11.07
2023-05-05T02:19:45.948Z,9.00
2023-05-05T02:22:15.899Z,8.43
2023-05-05T02:24:44.549Z,9.48
2023-05-05T02:27:13.661Z,14.18
2023-05-05T02:29:54.176Z,7.60
2023-05-05T02:32:29.346Z,9.27
2023-05-05T02:35:00.827Z,8.98
2023-05-05T02:40:05.580Z,9.40
2023-05-05T02:42:43.359Z,9.43
2023-05-05T02:45:18.722Z,9.38
2023-05-05T02:47:49.135Z,9.55
2023-05-05T02:50:17.112Z,8.88
2023-05-05T02:53:05.256Z,9.05
2023-05-05T02:55:39.853Z,9.63
2023-05-05T02:58:14.197Z,11.23
2023-05-05T03:00:47.936Z,9.15
2023-05-05T03:03:39.412Z,9.17
2023-05-05T03:06:19.229Z,8.43
2023-05-05T03:08:52.781Z,8.70
2023-05-05T03:11:37.142Z,8.93
2023-05-05T03:14:12.476Z,7.50
2023-05-05T03:16:43.704Z,11.70
2023-05-05T03:19:13.825Z,8.50
2023-05-05T03:21:42.580Z,8.85
2023-05-05T03:24:17.938Z,10.45
2023-05-05T03:26:51.556Z,8.82
2023-05-05T03:29:22.188Z,8.80
2023-05-05T03:31:49.797Z,11.48
2023-05-05T03:34:17.525Z,10.93
2023-05-05T03:36:47.395Z,8.77
2023-05-05T03:39:16.566Z,9.63
2023-05-05T03:41:43.864Z,8.48
2023-05-05T03:44:12.778Z,8.45
2023-05-05T03:46:40.049Z,10.57
2023-05-05T03:49:11.355Z,10.27
2023-05-05T03:51:40.571Z,11.73
2023-05-05T03:54:08.149Z,10.75
2023-05-05T03:56:36.684Z,10.45
2023-05-05T03:59:04.970Z,10.88
2023-05-05T04:01:32.515Z,8.75
2023-05-05T04:04:00.529Z,10.77
2023-05-05T04:06:28.062Z,15.40
2023-05-05T04:08:55.410Z,9.57
2023-05-05T04:11:22.810Z,10.13
2023-05-05T04:13:50.774Z,12.40
2023-05-05T04:16:20.262Z,8.95
2023-05-05T04:18:47.792Z,10.57
2023-05-05T04:21:15.103Z,13.18
2023-05-05T04:23:42.415Z,10.57
2023-05-05T04:26:10.085Z,10.07
2023-05-05T04:28:37.431Z,8.55
2023-05-05T04:31:05.372Z,16.15
2023-05-05T04:33:36.375Z,10.02
2023-05-05T04:36:04.336Z,8.68
2023-05-05T04:38:31.761Z,9.98
2023-05-05T04:41:00.138Z,8.40
2023-05-05T04:43:28.565Z,9.40
2023-05-05T04:45:56.642Z,11.77
2023-05-05T04:50:55.551Z,11.60
2023-05-05T04:53:23.174Z,12.85
2023-05-05T04:55:50.730Z,8.57
2023-05-05T04:58:18.921Z,10.50
2023-05-05T05:00:46.712Z,9.18
2023-05-05T05:03:14.043Z,10.75
2023-05-05T05:05:41.356Z,11.60
2023-05-05T05:08:08.916Z,8.45
2023-05-05T05:10:36.715Z,10.05
2023-05-05T05:13:04.131Z,8.55
2023-05-05T05:15:31.480Z,8.80
2023-05-05T05:17:58.868Z,11.00
2023-05-05T05:20:26.417Z,9.32
2023-05-05T05:22:53.854Z,9.55
2023-05-05T05:25:25.056Z,8.65
2023-05-05T05:28:06.201Z,11.25
2023-05-05T05:30:40.007Z,9.95
2023-05-05T05:33:09.744Z,8.10
2023-05-05T05:35:37.266Z,10.55
2023-05-05T05:38:04.755Z,12.30
2023-05-05T05:40:32.380Z,12.32
2023-05-05T05:43:00.547Z,10.82
2023-05-05T05:45:28.725Z,9.70
2023-05-05T05:47:56.541Z,16.25
2023-05-05T05:50:27.208Z,17.83
2023-05-05T05:52:55.584Z,11.57
2023-05-05T05:55:24.123Z,13.48
2023-05-05T05:57:52.142Z,10.57
2023-05-05T06:00:20.921Z,19.77
2023-05-05T06:02:55.104Z,18.92
2023-05-05T06:05:25.903Z,17.80
2023-05-05T06:07:54.057Z,13.55
2023-05-05T06:10:27.770Z,9.05
2023-05-05T06:15:34.297Z,12.00
2023-05-05T06:18:03.482Z,11.52
2023-05-05T06:20:31.366Z,12.77
2023-05-05T06:22:58.700Z,14.35
2023-05-05T06:25:27.955Z,13.68
2023-05-05T06:27:55.303Z,15.82
2023-05-05T06:30:22.696Z,15.55
2023-05-05T06:32:50.170Z,9.75
2023-05-05T06:35:17.705Z,11.27
2023-05-05T06:37:44.940Z,12.32
2023-05-05T06:40:13.008Z,13.80
2023-05-05T06:42:40.474Z,16.48
2023-05-05T06:45:10.809Z,13.15
2023-05-05T06:47:38.461Z,10.63
2023-05-05T06:50:07.328Z,9.43
2023-05-05T06:52:34.879Z,9.23
2023-05-05T06:55:02.323Z,10.27
2023-05-05T06:57:30.039Z,11.13
2023-05-05T06:59:57.409Z,12.25
2023-05-05T07:02:26.661Z,12.55
2023-05-05T07:04:55.860Z,9.80
2023-05-05T07:07:23.112Z,11.48
2023-05-05T07:09:53.025Z,10.40
2023-05-05T07:12:20.294Z,10.00
2023-05-05T07:14:47.746Z,12.68
2023-05-05T07:17:15.159Z,10.95
2023-05-05T07:19:43.250Z,13.90
2023-05-05T07:22:10.729Z,11.85
2023-05-05T07:24:38.121Z,10.70
2023-05-05T07:27:06.594Z,10.50
2023-05-05T07:29:33.905Z,18.23
2023-05-05T07:32:02.231Z,12.10
2023-05-05T07:34:30.061Z,13.10
2023-05-05T07:36:57.412Z,11.10
2023-05-05T07:39:24.703Z,10.23
2023-05-05T07:41:52.569Z,12.23
2023-05-05T07:44:20.231Z,11.23
2023-05-05T07:46:50.494Z,11.80
2023-05-05T07:49:17.842Z,9.60
2023-05-05T07:51:45.166Z,12.40
2023-05-05T07:54:12.875Z,12.38
2023-05-05T07:56:40.298Z,11.45
2023-05-05T07:59:07.681Z,9.48
2023-05-05T08:01:34.939Z,13.88
2023-05-05T08:04:02.279Z,15.52
2023-05-05T08:06:31.771Z,13.32
2023-05-05T08:09:02.056Z,12.77
2023-05-05T08:11:29.720Z,11.80
2023-05-05T08:13:57.050Z,13.95
2023-05-05T08:16:25.349Z,12.50
2023-05-05T08:18:52.766Z,13.60
2023-05-05T08:21:20.213Z,12.82
2023-05-05T08:23:47.469Z,16.98
2023-05-05T08:26:14.807Z,14.52
2023-05-05T08:28:42.169Z,10.52
2023-05-05T08:31:09.628Z,13.60
2023-05-05T08:33:36.925Z,10.60
2023-05-05T08:36:05.910Z,12.10
2023-05-05T08:38:33.270Z,12.93
2023-05-05T08:41:00.508Z,11.73
2023-05-05T08:43:27.767Z,10.60
2023-05-05T08:45:56.616Z,15.10
2023-05-05T08:48:28.527Z,12.25
2023-05-05T08:51:02.587Z,11.68
2023-05-05T08:53:40.219Z,13.18
2023-05-05T08:56:08.408Z,11.98
2023-05-05T08:58:37.737Z,11.30
2023-05-05T09:01:06.606Z,10.88
2023-05-05T09:03:35.517Z,11.98
2023-05-05T09:06:02.895Z,12.40
2023-05-05T09:08:31.028Z,16.50
2023-05-05T09:10:58.327Z,13.75
2023-05-05T09:13:25.702Z,12.45
2023-05-05T09:15:53.067Z,11.63
2023-05-05T09:18:20.361Z,13.77
2023-05-05T09:20:47.879Z,10.65
2023-05-05T09:23:17.184Z,11.88
2023-05-05T09:25:47.028Z,12.48
2023-05-05T09:28:16.590Z,11.60
2023-05-05T09:30:46.043Z,14.13
2023-05-05T09:33:14.096Z,12.65
2023-05-05T09:35:55.311Z,17.02
2023-05-05T09:38:24.920Z,11.97
2023-05-05T09:40:53.741Z,12.52
2023-05-05T09:43:23.412Z,14.70
2023-05-05T09:45:51.384Z,11.75
2023-05-05T09:48:29.755Z,11.02
2023-05-05T09:50:59.200Z,12.52
2023-05-05T09:53:27.243Z,11.07
2023-05-05T09:55:59.730Z,10.73
2023-05-05T09:58:31.639Z,10.25
2023-05-05T10:00:59.678Z,11.18
2023-05-05T10:03:26.963Z,11.15
2023-05-05T10:05:59.174Z,13.27
2023-05-05T10:08:32.405Z,9.80
2023-05-05T10:11:06.606Z,10.68
2023-05-05T10:13:37.686Z,10.52
2023-05-05T10:16:09.302Z,11.35
2023-05-05T10:18:40.415Z,11.90
2023-05-05T10:21:09.438Z,11.55
2023-05-05T10:23:41.933Z,11.30
2023-05-05T10:26:13.742Z,10.82
2023-05-05T10:29:01.611Z,10.63
2023-05-05T10:31:49.287Z,9.70
2023-05-05T10:34:25.093Z,9.63
2023-05-05T10:36:53.835Z,10.10
2023-05-05T10:39:22.947Z,11.35
2023-05-05T10:41:52.288Z,15.07
2023-05-05T10:44:20.074Z,13.13
2023-05-05T10:46:47.945Z,11.00
2023-05-05T10:49:24.989Z,10.40
2023-05-05T10:52:26.355Z,9.32
2023-05-05T10:55:03.878Z,10.63
2023-05-05T10:57:36.228Z,10.00
2023-05-05T11:00:06.142Z,12.10
2023-05-05T11:02:36.207Z,12.07
2023-05-05T11:05:18.607Z,10.95
2023-05-05T11:07:47.402Z,11.65
2023-05-05T11:10:16.810Z,10.90
2023-05-05T11:13:10.646Z,11.68
2023-05-05T11:15:38.302Z,12.23
2023-05-05T11:18:08.273Z,12.10
2023-05-05T11:20:43.712Z,10.93
2023-05-05T11:23:11.066Z,11.73
2023-05-05T11:25:40.821Z,10.95
2023-05-05T11:28:12.811Z,12.40
2023-05-05T11:30:56.054Z,12.38
2023-05-05T11:33:39.586Z,10.45
2023-05-05T11:36:12.158Z,11.50
2023-05-05T11:38:39.449Z,9.85
2023-05-05T11:41:36.151Z,10.75
2023-05-05T11:44:15.206Z,12.25
2023-05-05T11:46:51.737Z,10.73
2023-05-05T11:49:45.703Z,8.38
2023-05-05T11:52:14.740Z,9.73
2023-05-05T11:54:51.488Z,10.57
2023-05-05T11:57:21.910Z,10.73
2023-05-05T12:00:00.392Z,10.13
2023-05-05T12:02:29.758Z,10.57
2023-05-05T12:04:58.791Z,11.90
2023-05-05T12:07:31.551Z,16.40
2023-05-05T12:09:59.444Z,11.25
2023-05-05T12:12:41.185Z,11.30
2023-05-05T12:17:45.391Z,12.55
2023-05-05T12:20:13.149Z,10.90
2023-05-05T12:22:41.162Z,10.77
2023-05-05T12:25:09.378Z,13.20
2023-05-05T12:27:37.157Z,10.25
2023-05-05T12:30:16.772Z,9.23
2023-05-05T12:32:45.130Z,11.85
2023-05-05T12:35:13.750Z,9.38
2023-05-05T12:37:42.426Z,9.50
2023-05-05T12:40:45.985Z,10.77
2023-05-05T12:43:27.254Z,9.25
2023-05-05T12:46:07.853Z,9.82
2023-05-05T12:48:40.344Z,10.38
2023-05-05T12:51:17.566Z,9.02
2023-05-05T12:53:46.330Z,9.38
2023-05-05T12:56:38.524Z,8.43
2023-05-05T12:59:24.275Z,12.90
2023-05-05T13:01:53.166Z,12.40
2023-05-05T13:04:23.174Z,8.80
2023-05-05T13:07:08.201Z,12.50
2023-05-05T13:09:36.581Z,12.02
2023-05-05T13:12:04.773Z,9.07
2023-05-05T13:14:32.706Z,10.90
2023-05-05T13:17:00.671Z,10.57
2023-05-05T13:19:27.945Z,10.77
2023-05-05T13:21:56.664Z,7.65
2023-05-05T13:24:38.136Z,9.38
2023-05-05T13:27:12.734Z,9.63
2023-05-05T13:29:41.747Z,8.43
2023-05-05T13:32:09.151Z,7.82
2023-05-05T13:34:37.384Z,10.02
2023-05-05T13:37:04.628Z,6.80
2023-05-05T13:39:32.242Z,7.60
2023-05-05T13:41:59.953Z,8.32
2023-05-05T13:44:27.404Z,10.43
2023-05-05T13:46:54.894Z,8.23
2023-05-05T13:49:22.303Z,9.40
2023-05-05T13:51:49.708Z,9.93
2023-05-05T13:54:17.087Z,7.82
2023-05-05T13:56:44.720Z,8.82
2023-05-05T13:59:12.549Z,8.82
2023-05-05T14:01:39.772Z,6.85
2023-05-05T14:04:07.374Z,6.97
2023-05-05T14:06:35.879Z,7.03
2023-05-05T14:09:06.086Z,7.07
2023-05-05T14:11:33.983Z,7.18
2023-05-05T14:14:02.135Z,7.00
2023-05-05T14:16:29.599Z,6.75
2023-05-05T14:18:57.077Z,9.95
2023-05-05T14:21:24.749Z,7.63
2023-05-05T14:23:52.746Z,9.02
2023-05-05T14:26:20.021Z,8.27
2023-05-05T14:28:49.779Z,8.95
2023-05-05T14:31:18.052Z,9.55
2023-05-05T14:33:45.785Z,8.27
2023-05-05T14:36:14.416Z,8.48
2023-05-05T14:38:43.026Z,6.97
2023-05-05T14:41:10.946Z,6.93
2023-05-05T14:43:38.694Z,8.07
2023-05-05T14:46:07.462Z,7.97
2023-05-05T14:48:36.183Z,9.13
2023-05-05T14:51:04.514Z,8.18
2023-05-05T14:53:32.215Z,9.20
2023-05-05T14:56:00.504Z,8.80
2023-05-05T14:58:28.045Z,10.65
2023-05-05T15:00:55.578Z,9.30
2023-05-05T15:03:23.055Z,9.65
2023-05-05T15:05:50.584Z,7.95
2023-05-05T15:08:19.380Z,7.07
2023-05-05T15:10:47.317Z,6.88
2023-05-05T15:13:15.161Z,6.55
2023-05-05T15:15:42.923Z,8.75
2023-05-05T15:18:10.265Z,6.88
2023-05-05T15:20:37.974Z,8.45
2023-05-05T15:23:05.377Z,9.75
2023-05-05T15:25:32.926Z,6.95
2023-05-05T15:28:01.506Z,8.05
2023-05-05T15:30:29.367Z,9.10
2023-05-05T15:32:56.798Z,7.05
2023-05-05T15:35:25.869Z,6.95
2023-05-05T15:37:56.217Z,8.10
2023-05-05T15:40:23.597Z,9.27
2023-05-05T15:42:51.969Z,6.82
2023-05-05T15:45:19.284Z,7.05
2023-05-05T15:47:46.646Z,7.45
2023-05-05T15:50:14.556Z,6.88
2023-05-05T15:52:42.056Z,8.70
2023-05-05T15:55:10.551Z,9.32
2023-05-05T15:57:40.532Z,8.18
2023-05-05T16:00:09.564Z,8.80
2023-05-05T16:02:38.920Z,9.73
2023-05-05T16:05:06.927Z,8.77
2023-05-05T16:07:34.550Z,9.10
2023-05-05T16:10:02.930Z,8.40
2023-05-05T16:12:30.572Z,9.98
2023-05-05T16:14:57.873Z,9.98
2023-05-05T16:17:25.292Z,8.23
2023-05-05T16:19:52.840Z,8.52
2023-05-05T16:22:21.512Z,8.75
2023-05-05T16:24:49.810Z,8.00
2023-05-05T16:27:17.874Z,9.48
2023-05-05T16:29:45.252Z,10.18
2023-05-05T16:32:12.927Z,10.73
2023-05-05T16:34:40.422Z,9.88
2023-05-05T16:37:07.813Z,12.57
2023-05-05T16:39:40.353Z,10.90
2023-05-05T16:42:07.853Z,10.20
2023-05-05T16:44:35.137Z,10.90
2023-05-05T16:47:02.530Z,8.23
2023-05-05T16:49:29.798Z,9.52
2023-05-05T16:51:57.366Z,8.77
2023-05-05T16:54:24.633Z,8.25
2023-05-05T16:56:52.537Z,8.80
2023-05-05T16:59:19.912Z,9.40
2023-05-05T17:01:47.344Z,11.32
2023-05-05T17:04:18.767Z,12.55
2023-05-05T17:06:46.378Z,11.65
2023-05-05T17:09:13.766Z,9.77
2023-05-05T17:11:41.190Z,8.60
2023-05-05T17:14:08.526Z,8.45
2023-05-05T17:16:37.095Z,8.23
2023-05-05T17:19:05.415Z,7.45
2023-05-05T17:21:32.928Z,8.45
2023-05-05T17:24:02.087Z,9.27
2023-05-05T17:26:30.852Z,8.55
2023-05-05T17:28:58.322Z,11.02
2023-05-05T17:31:25.961Z,9.57
2023-05-05T17:33:53.246Z,9.75
2023-05-05T17:36:20.618Z,8.15
2023-05-05T17:38:48.002Z,9.55
2023-05-05T17:41:15.276Z,11.05
2023-05-05T17:43:42.757Z,9.35
2023-05-05T17:46:10.053Z,9.65
2023-05-05T17:48:37.733Z,10.75
2023-05-05T17:51:05.392Z,10.40
2023-05-05T17:53:32.762Z,10.48
2023-05-05T17:56:00.131Z,13.20
2023-05-05T17:58:28.224Z,10.80
2023-05-05T18:00:55.847Z,11.35
2023-05-05T18:03:23.273Z,18.67
2023-05-05T18:05:50.542Z,13.52
2023-05-05T18:08:18.659Z,13.93
2023-05-05T18:10:46.086Z,9.80
2023-05-05T18:13:13.420Z,16.20
2023-05-05T18:15:41.329Z,15.52
2023-05-05T18:18:09.065Z,12.68
2023-05-05T18:20:37.128Z,13.65
2023-05-05T18:23:04.381Z,17.77
2023-05-05T18:25:32.531Z,16.05
2023-05-05T18:27:59.787Z,15.20
2023-05-05T18:30:27.408Z,14.65
2023-05-05T18:32:55.015Z,10.50
2023-05-05T18:35:22.686Z,17.63
2023-05-05T18:37:50.165Z,15.52
2023-05-05T18:40:17.858Z,15.43
2023-05-05T18:42:45.347Z,17.00
2023-05-05T18:45:12.769Z,13.02
2023-05-05T18:47:40.299Z,15.20
2023-05-05T18:50:08.902Z,13.00
2023-05-05T18:52:37.195Z,17.38
2023-05-05T18:55:04.884Z,14.77
2023-05-05T18:57:32.390Z,19.52
2023-05-05T19:00:00.633Z,18.33
2023-05-05T19:02:28.927Z,13.82
2023-05-05T19:04:56.378Z,13.52
2023-05-05T19:07:34.361Z,15.23
2023-05-05T19:10:05.271Z,18.25
2023-05-05T19:12:32.609Z,17.77
2023-05-05T19:15:00.000Z,18.23
2023-05-05T19:17:27.998Z,17.63
2023-05-05T19:19:55.801Z,18.05
2023-05-05T19:22:23.974Z,19.13
2023-05-05T19:24:51.654Z,15.35
2023-05-05T19:27:21.698Z,17.17
2023-05-05T19:29:52.482Z,9.63
2023-05-05T19:32:21.519Z,7.68
2023-05-05T19:34:50.101Z,9.02
2023-05-05T19:37:17.493Z,8.95
2023-05-05T19:39:45.902Z,6.40
2023-05-05T19:42:13.359Z,10.23
2023-05-05T19:44:41.756Z,8.15
2023-05-05T19:47:11.004Z,7.65
2023-05-05T19:49:38.827Z,7.40
2023-05-05T19:52:06.246Z,7.63
2023-05-05T19:54:33.655Z,6.43
2023-05-05T19:57:01.519Z,13.73
2023-05-05T19:59:29.039Z,6.05
2023-05-05T20:01:56.815Z,5.47
2023-05-05T20:04:24.422Z,6.57
2023-05-05T20:06:51.965Z,5.70
2023-05-05T20:09:19.977Z,6.40
2023-05-05T20:11:47.352Z,7.25
2023-05-05T20:14:14.747Z,6.57
2023-05-05T20:16:42.645Z,5.60
2023-05-05T20:19:10.108Z,6.93
2023-05-05T20:21:37.782Z,8.55
2023-05-05T20:24:06.212Z,8.27
2023-05-05T20:26:33.694Z,7.70
2023-05-05T20:29:01.285Z,8.68
2023-05-05T20:31:28.804Z,5.72
2023-05-05T20:33:56.378Z,8.73
2023-05-05T20:36:26.539Z,8.85
2023-05-05T20:38:54.162Z,6.25
2023-05-05T20:41:22.568Z,6.65
2023-05-05T20:43:50.006Z,7.05
2023-05-05T20:46:17.360Z,6.22
2023-05-05T20:48:46.300Z,7.38
2023-05-05T20:51:13.624Z,6.32
2023-05-05T20:53:41.111Z,7.82
2023-05-05T20:56:09.214Z,7.65
2023-05-05T20:58:36.730Z,7.40
2023-05-05T21:01:03.995Z,10.13
2023-05-05T21:03:31.231Z,6.03
2023-05-05T21:05:58.644Z,6.38
2023-05-05T21:08:26.022Z,8.85
2023-05-05T21:10:53.278Z,11.50
2023-05-05T21:13:20.824Z,8.57
2023-05-05T21:15:50.547Z,10.95
2023-05-05T21:18:17.901Z,8.73
2023-05-05T21:20:45.681Z,10.77
2023-05-05T21:23:13.679Z,12.10
2023-05-05T21:25:42.809Z,7.88
2023-05-05T21:28:11.428Z,8.68
2023-05-05T21:30:40.656Z,8.50
2023-05-05T21:33:08.866Z,5.15
2023-05-05T21:35:36.545Z,7.13
2023-05-05T21:38:03.994Z,7.13
2023-05-05T21:40:31.260Z,6.07
2023-05-05T21:42:58.521Z,8.57
2023-05-05T21:45:25.868Z,7.18
2023-05-05T21:47:53.194Z,8.10
2023-05-05T21:50:20.686Z,6.50
2023-05-05T21:52:48.082Z,7.30
2023-05-05T21:55:15.717Z,6.30
2023-05-05T21:57:43.602Z,7.78
2023-05-05T22:00:16.958Z,5.78
2023-05-05T22:02:45.603Z,8.63
2023-05-05T22:05:13.441Z,6.18
2023-05-05T22:07:59.543Z,7.40
2023-05-05T22:10:27.734Z,6.00
2023-05-05T22:12:55.061Z,6.10
2023-05-05T22:15:25.406Z,8.38
2023-05-05T22:17:54.832Z,8.07
2023-05-05T22:20:22.249Z,6.70
2023-05-05T22:22:49.844Z,8.25
2023-05-05T22:25:17.200Z,8.27
2023-05-05T22:27:44.490Z,7.50
2023-05-05T22:30:12.553Z,7.40
2023-05-05T22:32:40.355Z,8.38
2023-05-05T22:35:09.373Z,7.00
2023-05-05T22:37:37.738Z,6.65
2023-05-05T22:40:05.523Z,9.48
2023-05-05T22:42:32.804Z,6.35
2023-05-05T22:45:00.073Z,8.32
2023-05-05T22:47:27.406Z,8.82
2023-05-05T22:49:54.713Z,7.72
2023-05-05T22:52:22.105Z,6.97
2023-05-05T22:54:49.345Z,7.63
2023-05-05T22:57:16.632Z,5.95
2023-05-05T22:59:44.232Z,12.05
2023-05-05T23:02:11.522Z,9.13
2023-05-05T23:04:39.360Z,9.13
2023-05-05T23:07:06.749Z,7.97
2023-05-05T23:09:34.081Z,9.48
2023-05-05T23:12:01.943Z,9.68
2023-05-05T23:14:29.306Z,8.43
2023-05-05T23:16:56.568Z,10.73
2023-05-05T23:19:24.393Z,8.73
2023-05-05T23:21:53.674Z,10.15
2023-05-05T23:24:22.165Z,8.10
2023-05-05T23:26:49.743Z,10.20
2023-05-05T23:29:16.965Z,9.05
2023-05-05T23:31:44.992Z,9.30
2023-05-05T23:34:13.256Z,6.75
2023-05-05T23:36:40.684Z,12.63
2023-05-05T23:39:07.953Z,9.35
2023-05-05T23:41:35.267Z,9.25
2023-05-05T23:44:02.685Z,8.20
2023-05-05T23:46:30.284Z,8.20
2023-05-05T23:48:57.722Z,8.60
2023-05-05T23:51:24.983Z,9.25
2023-05-05T23:53:52.352Z,8.50
2023-05-05T23:56:20.210Z,8.48
2023-05-05T23:58:47.816Z,8.75
